Time;durP1;ratioP1;P1;durP2;ratioP2;P2;SDS_P1;SDS_P2;PMS_P1;PMS_P2;Temp;Humidity;BMP_temperature;BMP_pressure;BME280_temperature;BME280_humidity;BME280_pressure;Samples;Min_cycle;Max_cycle;Signal;HPM_P1;HPM_P2
2021/10/22 00:00:37;;;;;;;5.40;1.38;;;;;;;5.62;68.89;100256.28;4986498;28;20093;-47
2021/10/22 00:03:04;;;;;;;4.35;1.85;;;;;;;5.60;69.01;100255.38;4984466;28;20078;-49
2021/10/22 00:05:33;;;;;;;7.18;1.05;;;;;;;5.58;68.81;100255.38;4991403;28;20050;-49
2021/10/22 00:08:00;;;;;;;3.97;0.70;;;;;;;5.57;69.34;100253.63;4986297;28;20129;-49
2021/10/22 00:10:28;;;;;;;6.43;1.23;;;;;;;5.57;68.66;100255.34;4984987;28;20042;-47
2021/10/22 00:12:54;;;;;;;2.65;1.05;;;;;;;5.53;69.78;100244.13;4985993;28;20569;-48
2021/10/22 00:15:21;;;;;;;4.75;1.10;;;;;;;5.53;69.46;100239.84;4986570;28;20394;-47
2021/10/22 00:17:48;;;;;;;2.40;1.00;;;;;;;5.53;69.14;100234.72;4984010;28;20105;-48
2021/10/22 00:20:16;;;;;;;4.07;0.93;;;;;;;5.53;69.01;100244.13;4986065;28;20050;-48
2021/10/22 00:22:43;;;;;;;9.13;0.98;;;;;;;5.52;69.20;100242.38;4981972;28;20051;-47
2021/10/22 00:25:10;;;;;;;4.72;0.98;;;;;;;5.51;69.69;100241.50;4984174;28;20101;-51
2021/10/22 00:27:37;;;;;;;5.30;0.85;;;;;;;5.52;69.82;100243.28;4999882;28;20049;-48
2021/10/22 00:30:04;;;;;;;2.80;1.15;;;;;;;5.53;69.71;100238.97;4984847;28;20097;-47
2021/10/22 00:32:30;;;;;;;3.17;0.95;;;;;;;5.54;69.64;100240.69;4993056;28;20077;-47
2021/10/22 00:34:57;;;;;;;5.30;0.85;;;;;;;5.53;69.93;100239.84;4984612;28;20101;-47
2021/10/22 00:37:24;;;;;;;6.45;1.05;;;;;;;5.54;69.39;100240.69;4985114;28;20116;-51
2021/10/22 00:39:52;;;;;;;4.25;0.82;;;;;;;5.53;69.60;100244.13;4987449;28;20113;-50
2021/10/22 00:42:20;;;;;;;2.83;1.20;;;;;;;5.53;69.58;100231.28;4989464;28;20058;-49
2021/10/22 00:44:48;;;;;;;7.32;0.77;;;;;;;5.51;70.16;100230.38;4990267;28;20068;-47
2021/10/22 00:47:15;;;;;;;1.33;1.05;;;;;;;5.52;69.94;100232.13;4983898;28;20117;-48
2021/10/22 00:49:42;;;;;;;5.00;0.80;;;;;;;5.50;70.14;100233.78;4987115;28;20606;-47
2021/10/22 00:52:09;;;;;;;9.75;0.60;;;;;;;5.49;70.09;100242.31;4987218;28;20128;-50
2021/10/22 00:54:36;;;;;;;8.27;1.05;;;;;;;5.47;70.36;100238.88;4989044;28;20046;-47
2021/10/22 00:57:03;;;;;;;4.10;0.73;;;;;;;5.48;70.40;100227.75;4986430;28;20046;-48
2021/10/22 00:59:30;;;;;;;2.20;0.77;;;;;;;5.48;70.73;100235.44;4988191;28;20069;-48
2021/10/22 01:01:56;;;;;;;5.32;0.63;;;;;;;5.46;70.09;100231.97;4987586;28;20050;-50
2021/10/22 01:04:23;;;;;;;3.70;0.98;;;;;;;5.46;70.39;100227.72;4984576;28;20046;-48
2021/10/22 01:06:50;;;;;;;9.02;0.75;;;;;;;5.48;70.12;100220.91;4986303;28;20138;-51
2021/10/22 01:09:17;;;;;;;9.80;0.93;;;;;;;5.48;70.25;100233.75;4985528;28;20104;-48
2021/10/22 01:11:43;;;;;;;7.53;0.95;;;;;;;5.49;70.53;100226.91;4990683;28;20046;-48
2021/10/22 01:14:11;;;;;;;8.15;1.02;;;;;;;5.48;70.74;100230.31;4996278;28;20046;-50
2021/10/22 01:16:41;;;;;;;5.15;0.93;;;;;;;5.48;70.62;100231.19;4992452;28;20105;-47
2021/10/22 01:19:15;;;;;;;6.32;1.15;;;;;;;5.47;70.40;100233.72;4999103;28;20050;-47
2021/10/22 01:21:43;;;;;;;6.43;0.90;;;;;;;5.47;70.50;100228.59;4990898;28;20085;-48
2021/10/22 01:24:10;;;;;;;6.65;0.98;;;;;;;5.46;70.32;100225.16;4983096;28;20507;-50
2021/10/22 01:26:37;;;;;;;3.78;1.08;;;;;;;5.45;70.06;100220.84;4993793;28;20050;-50
2021/10/22 01:29:04;;;;;;;3.20;0.68;;;;;;;5.45;70.66;100220.84;4990166;28;20104;-48
2021/10/22 01:31:31;;;;;;;7.72;0.55;;;;;;;5.45;70.20;100215.72;4991974;28;20097;-48
2021/10/22 01:33:57;;;;;;;1.90;0.75;;;;;;;5.42;71.08;100210.50;4991056;28;20050;-51
2021/10/22 01:36:26;;;;;;;2.40;1.92;;;;;;;5.42;70.75;100214.75;4989923;28;20050;-48
2021/10/22 01:38:53;;;;;;;5.28;0.70;;;;;;;5.40;70.93;100218.19;4989824;28;20481;-50
2021/10/22 01:41:20;;;;;;;2.78;0.57;;;;;;;5.39;70.56;100210.44;4989908;28;20053;-49
2021/10/22 01:43:49;;;;;;;4.55;0.75;;;;;;;5.37;70.71;100217.25;4991841;28;20089;-48
2021/10/22 01:46:16;;;;;;;8.63;0.98;;;;;;;5.35;70.39;100218.91;4989099;28;20414;-50
2021/10/22 01:48:43;;;;;;;3.15;0.68;;;;;;;5.32;70.68;100217.16;4988592;28;20050;-49
2021/10/22 01:51:10;;;;;;;6.28;1.42;;;;;;;5.32;70.46;100221.41;4990648;28;20414;-47
2021/10/22 01:53:36;;;;;;;3.90;0.95;;;;;;;5.28;70.67;100208.50;4986180;28;20880;-51
2021/10/22 01:56:03;;;;;;;6.00;1.00;;;;;;;5.28;70.92;100202.50;4992801;28;20108;-48
2021/10/22 01:58:29;;;;;;;6.60;0.63;;;;;;;5.23;70.55;100193.81;4990036;28;20375;-49
2021/10/22 02:00:57;;;;;;;4.05;0.85;;;;;;;5.22;71.19;100192.09;4988297;28;20048;-50
2021/10/22 02:03:23;;;;;;;4.22;1.15;;;;;;;5.22;71.61;100199.78;4989987;28;20085;-47
2021/10/22 02:05:50;;;;;;;4.10;0.73;;;;;;;5.18;71.29;100198.88;4992680;28;20050;-51
2021/10/22 02:08:16;;;;;;;2.88;0.95;;;;;;;5.18;71.46;100200.56;4990774;28;20058;-48
2021/10/22 02:10:43;;;;;;;3.78;0.85;;;;;;;5.17;71.35;100191.13;4996142;28;20116;-50
2021/10/22 02:13:10;;;;;;;5.13;0.98;;;;;;;5.13;71.54;100188.50;4993896;28;20431;-50
2021/10/22 02:15:36;;;;;;;9.18;0.93;;;;;;;5.13;71.32;100203.91;4989082;28;20042;-47
2021/10/22 02:18:03;;;;;;;2.75;0.75;;;;;;;5.12;71.86;100197.03;4994516;28;20194;-47
2021/10/22 02:20:29;;;;;;;7.20;0.82;;;;;;;5.12;71.61;100197.03;4991133;28;20430;-48
2021/10/22 02:22:56;;;;;;;3.22;1.17;;;;;;;5.11;71.98;100190.19;4995747;28;20104;-49
2021/10/22 02:25:23;;;;;;;3.80;1.27;;;;;;;5.10;72.13;100198.69;4989591;28;20058;-49
2021/10/22 02:27:49;;;;;;;3.42;0.65;;;;;;;5.12;71.58;100191.91;4994001;28;20096;-47
2021/10/22 02:30:20;;;;;;;2.70;0.63;;;;;;;5.09;71.84;100191.81;4991918;28;20078;-47
2021/10/22 02:32:46;;;;;;;4.40;0.75;;;;;;;5.11;71.65;100186.72;4992220;28;20652;-49
2021/10/22 02:35:13;;;;;;;3.92;0.47;;;;;;;5.09;71.91;100179.00;4990497;28;20046;-48
2021/10/22 02:37:42;;;;;;;4.10;0.63;;;;;;;5.13;72.16;100188.50;4991027;28;20561;-50
2021/10/22 02:40:10;;;;;;;7.05;0.50;;;;;;;5.13;71.67;100188.50;4996091;28;20042;-49
2021/10/22 02:42:36;;;;;;;4.13;1.02;;;;;;;5.16;71.63;100192.81;4987593;28;20105;-50
2021/10/22 02:45:03;;;;;;;6.30;0.65;;;;;;;5.15;72.24;100180.81;4996010;28;20100;-49
2021/10/22 02:47:30;;;;;;;5.68;0.77;;;;;;;5.19;71.79;100184.31;4989893;28;20383;-48
2021/10/22 02:49:57;;;;;;;3.25;0.88;;;;;;;5.20;71.62;100188.63;4993113;28;20053;-47
2021/10/22 02:52:23;;;;;;;2.47;0.80;;;;;;;5.21;71.30;100185.22;4985976;28;20062;-46
2021/10/22 02:54:50;;;;;;;8.15;1.23;;;;;;;5.22;72.14;100172.44;4987699;28;20054;-48
2021/10/22 02:57:16;;;;;;;5.00;0.93;;;;;;;5.25;71.75;100181.88;4982906;28;20046;-48
2021/10/22 02:59:43;;;;;;;2.85;0.85;;;;;;;5.28;71.30;100177.66;4985531;28;20112;-48
2021/10/22 03:02:10;;;;;;;3.35;0.82;;;;;;;5.29;71.69;100163.13;4988853;28;20058;-48
2021/10/22 03:04:36;;;;;;;1.50;1.02;;;;;;;5.32;71.37;100168.34;4988426;28;20057;-48
2021/10/22 03:07:03;;;;;;;1.02;0.40;;;;;;;5.33;71.90;100175.22;4987142;28;20050;-48
2021/10/22 03:09:29;;;;;;;4.80;0.65;;;;;;;5.38;71.78;100168.44;4982905;28;20675;-48
2021/10/22 03:11:56;;;;;;;1.60;0.45;;;;;;;5.39;71.49;100159.94;4986156;28;20763;-48
2021/10/22 03:14:23;;;;;;;2.70;0.75;;;;;;;5.40;71.95;100161.66;4985675;28;20093;-47
2021/10/22 03:16:49;;;;;;;6.72;0.90;;;;;;;5.43;71.61;100170.28;4988664;28;20101;-48
2021/10/22 03:19:16;;;;;;;1.98;0.50;;;;;;;5.43;71.49;100172.84;4988886;28;20085;-47
2021/10/22 03:21:42;;;;;;;4.00;0.75;;;;;;;5.45;70.88;100168.59;4990160;28;20101;-47
2021/10/22 03:24:09;;;;;;;3.50;1.08;;;;;;;5.45;71.44;100168.59;4989572;28;20050;-49
2021/10/22 03:26:36;;;;;;;4.55;0.98;;;;;;;5.44;71.55;100172.00;4984672;28;20050;-48
2021/10/22 03:29:03;;;;;;;1.73;0.93;;;;;;;5.43;71.48;100168.56;4991246;28;20495;-47
2021/10/22 03:31:31;;;;;;;1.92;0.35;;;;;;;5.42;70.96;100164.25;4987307;28;20101;-50
2021/10/22 03:33:59;;;;;;;9.23;0.75;;;;;;;5.43;71.30;100175.41;4987181;28;20065;-48
2021/10/22 03:36:26;;;;;;;4.00;0.55;;;;;;;5.40;71.51;100171.94;4991758;28;20046;-46
2021/10/22 03:38:53;;;;;;;5.80;1.17;;;;;;;5.40;72.02;100171.06;4987183;28;20054;-47
2021/10/22 03:41:20;;;;;;;5.47;0.80;;;;;;;5.38;71.21;100153.03;4987420;28;20112;-49
2021/10/22 03:43:46;;;;;;;3.70;0.80;;;;;;;5.37;71.66;100165.88;4984992;28;20062;-47
2021/10/22 03:46:13;;;;;;;1.65;0.88;;;;;;;5.35;72.11;100163.28;4987996;28;20077;-49
2021/10/22 03:48:40;;;;;;;1.83;0.90;;;;;;;5.35;72.04;100152.13;4994133;28;20420;-48
2021/10/22 03:51:06;;;;;;;2.58;1.05;;;;;;;5.34;71.60;100153.81;4991616;28;20046;-48
2021/10/22 03:53:33;;;;;;;4.38;0.77;;;;;;;5.36;72.15;100152.16;4989079;28;20637;-50
2021/10/22 03:56:00;;;;;;;2.17;0.47;;;;;;;5.38;71.36;100153.03;4987734;28;20730;-49
2021/10/22 03:58:27;;;;;;;5.38;1.10;;;;;;;5.38;71.71;100155.59;4985288;28;20100;-48
2021/10/22 04:00:54;;;;;;;2.75;0.65;;;;;;;5.40;71.97;100156.53;4990713;28;20173;-49
2021/10/22 04:03:20;;;;;;;2.83;0.85;;;;;;;5.40;71.47;100156.53;4988286;28;20485;-49
2021/10/22 04:05:51;;;;;;;4.07;0.38;;;;;;;5.40;71.68;100146.25;4991983;28;20050;-48
2021/10/22 04:08:18;;;;;;;4.05;0.60;;;;;;;5.43;71.93;100147.16;4990423;28;20534;-50
2021/10/22 04:10:44;;;;;;;4.43;0.98;;;;;;;5.44;71.45;100147.16;4990143;28;20050;-48
2021/10/22 04:13:12;;;;;;;3.60;1.30;;;;;;;5.48;71.83;100159.25;4987959;28;20050;-48
2021/10/22 04:15:40;;;;;;;3.97;0.95;;;;;;;5.46;72.08;100152.34;4989106;28;20117;-48
2021/10/22 04:18:07;;;;;;;8.10;0.60;;;;;;;5.49;71.62;100149.81;4988959;28;20046;-47
2021/10/22 04:20:34;;;;;;;5.93;1.10;;;;;;;5.49;71.84;100152.41;4992827;28;20442;-47
2021/10/22 04:23:06;;;;;;;3.20;0.93;;;;;;;5.49;71.53;100154.97;4993518;28;20133;-50
2021/10/22 04:25:34;;;;;;;6.55;0.98;;;;;;;5.51;71.65;100159.28;4987802;28;20104;-51
2021/10/22 04:28:01;;;;;;;3.50;0.70;;;;;;;5.53;72.06;100167.03;4982879;28;20058;-51
2021/10/22 04:30:28;;;;;;;3.67;0.93;;;;;;;5.57;71.70;100153.41;4987994;28;20065;-50
2021/10/22 04:32:55;;;;;;;3.53;0.57;;;;;;;5.62;71.38;100161.22;4984515;28;20050;-49
2021/10/22 04:35:22;;;;;;;10.32;0.60;;;;;;;5.65;71.38;100154.41;4991158;28;20628;-49
2021/10/22 04:40:29;;;;;;;3.92;0.82;;;;;;;5.69;71.65;100150.22;4985096;28;20046;-50
2021/10/22 04:40:41;;;;;;;3.85;1.33;;;;;;;5.73;71.41;100143.41;4986726;28;20051;-50
2021/10/22 04:43:11;;;;;;;3.10;0.85;;;;;;;5.78;71.79;100152.09;4989019;28;20059;-48
2021/10/22 04:45:38;;;;;;;;;;;;;;;5.77;72.15;100150.34;4988848;28;20505;-50
2021/10/22 04:48:08;;;;;;;0.52;0.32;;;;;;;5.87;70.72;100157.41;4988798;28;19926;-48
2021/10/22 04:50:42;;;;;;;3.45;0.60;;;;;;;5.92;70.77;100154.94;4992158;28;20101;-51
2021/10/22 04:53:09;;;;;;;2.55;0.55;;;;;;;5.98;70.52;100167.03;4988065;28;20568;-49
2021/10/22 04:55:38;;;;;;;3.97;1.08;;;;;;;6.03;71.06;100167.97;4993910;28;20047;-47
2021/10/22 04:58:06;;;;;;;2.13;0.60;;;;;;;6.09;70.74;100168.13;4979570;28;20709;-47
2021/10/22 05:00:53;;;;;;;4.30;1.25;;;;;;;6.13;71.18;100172.47;4983446;28;20133;-49
2021/10/22 05:03:20;;;;;;;5.57;0.75;;;;;;;6.20;71.27;100175.13;4992864;28;20054;-47
2021/10/22 05:05:46;;;;;;;4.47;0.70;;;;;;;6.25;70.90;100178.66;4984052;28;20061;-48
2021/10/22 05:08:14;;;;;;;2.33;0.85;;;;;;;6.31;71.22;100178.75;4991001;28;21361;-48
2021/10/22 05:10:41;;;;;;;4.40;0.47;;;;;;;6.34;69.79;100176.25;4988447;28;20662;-51
2021/10/22 05:13:08;;;;;;;2.38;0.43;;;;;;;6.37;69.72;100189.16;4984980;28;20046;-51
2021/10/22 05:15:35;;;;;;;5.45;0.73;;;;;;;6.40;70.37;100171.22;4987798;28;20049;-51
2021/10/22 05:18:01;;;;;;;1.73;0.73;;;;;;;6.40;70.46;100163.50;4986458;28;20062;-50
2021/10/22 05:20:28;;;;;;;8.10;1.35;;;;;;;6.43;70.59;100167.81;4994844;28;20050;-48
2021/10/22 05:22:55;;;;;;;2.70;0.75;;;;;;;6.43;70.63;100148.06;4988952;28;20054;-49
2021/10/22 05:25:22;;;;;;;2.17;0.22;;;;;;;6.47;69.76;100161.88;4984536;28;20050;-49
2021/10/22 05:27:49;;;;;;;3.58;1.02;;;;;;;6.50;71.05;100168.78;4986022;28;20054;-48
2021/10/22 05:30:16;;;;;;;4.88;1.02;;;;;;;6.52;70.89;100157.66;4985881;28;20050;-48
2021/10/22 05:32:43;;;;;;;3.83;0.45;;;;;;;6.52;70.91;100146.53;4987102;28;20089;-51
2021/10/22 05:35:10;;;;;;;4.97;0.75;;;;;;;6.48;69.69;100166.16;4986968;28;20442;-50
2021/10/22 05:37:38;;;;;;;6.03;0.50;;;;;;;6.46;69.79;100143.84;4992755;28;20060;-48
2021/10/22 05:40:07;;;;;;;2.97;0.60;;;;;;;6.41;69.54;100157.50;4985385;28;20112;-47
2021/10/22 05:42:34;;;;;;;1.02;0.43;;;;;;;6.39;69.81;100154.03;4992235;28;20062;-51
2021/10/22 05:45:00;;;;;;;2.83;1.25;;;;;;;6.37;70.95;100153.16;4987473;28;20058;-51
2021/10/22 05:47:27;;;;;;;2.28;0.40;;;;;;;6.36;69.56;100161.72;4989905;28;20062;-48
2021/10/22 05:49:54;;;;;;;3.15;0.93;;;;;;;6.34;70.80;100147.94;4994942;28;20054;-48
2021/10/22 05:52:20;;;;;;;1.98;0.60;;;;;;;6.32;70.80;100152.22;4988678;28;21784;-48
2021/10/22 05:54:47;;;;;;;7.57;1.33;;;;;;;6.28;70.79;100146.13;4985504;28;20058;-48
2021/10/22 05:57:14;;;;;;;1.42;0.75;;;;;;;6.29;70.67;100153.00;4986153;28;20058;-49
2021/10/22 05:59:41;;;;;;;1.98;0.98;;;;;;;6.29;70.46;100159.88;4989716;28;20053;-48
2021/10/22 06:02:13;;;;;;;2.38;0.70;;;;;;;6.29;70.52;100162.44;4989332;28;20125;-48
2021/10/22 06:04:40;;;;;;;5.63;0.70;;;;;;;6.26;70.36;100154.69;4995980;28;20150;-50
2021/10/22 06:07:06;;;;;;;4.15;0.82;;;;;;;6.28;70.65;100163.25;4988565;28;20058;-49
2021/10/22 06:09:33;;;;;;;3.40;0.75;;;;;;;6.26;70.35;100164.97;4990626;28;20045;-48
2021/10/22 06:12:00;;;;;;;2.70;0.88;;;;;;;6.27;70.79;100169.25;4989493;28;20046;-48
2021/10/22 06:14:27;;;;;;;2.42;0.98;;;;;;;6.27;70.86;100166.69;4988301;28;20046;-49
2021/10/22 06:16:55;;;;;;;3.92;0.57;;;;;;;6.23;70.80;100167.47;4993013;28;20046;-49
2021/10/22 06:19:26;;;;;;;2.08;0.68;;;;;;;6.22;69.83;100171.78;4993959;28;20078;-48
2021/10/22 06:22:07;;;;;;;3.10;0.65;;;;;;;6.22;70.21;100179.50;4992607;28;20046;-50
2021/10/22 06:24:35;;;;;;;0.73;0.35;;;;;;;6.20;70.59;100175.13;4989246;28;20112;-51
2021/10/22 06:27:02;;;;;;;2.58;0.88;;;;;;;6.21;70.63;100187.19;4990424;28;20062;-51
2021/10/22 06:29:30;;;;;;;3.25;0.55;;;;;;;6.16;69.98;100190.53;4986948;28;20461;-51
2021/10/22 06:31:57;;;;;;;3.13;0.47;;;;;;;6.15;71.19;100193.94;4994279;28;20073;-49
2021/10/22 06:34:26;;;;;;;4.82;0.70;;;;;;;6.13;70.05;100189.59;4986274;28;20140;-49
2021/10/22 06:36:54;;;;;;;2.47;0.77;;;;;;;6.12;71.17;100199.00;4989235;28;20061;-51
2021/10/22 06:39:20;;;;;;;1.25;0.35;;;;;;;6.09;71.29;100204.13;4988435;28;20046;-48
2021/10/22 06:41:47;;;;;;;2.58;0.68;;;;;;;6.11;71.12;100212.72;4986457;28;20046;-48
2021/10/22 06:44:17;;;;;;;2.38;1.05;;;;;;;6.08;71.28;100212.66;4995041;28;20553;-51
2021/10/22 06:46:44;;;;;;;2.30;0.65;;;;;;;6.08;69.85;100204.94;4991210;28;20553;-47
2021/10/22 06:49:12;;;;;;;2.70;0.77;;;;;;;6.06;71.25;100213.47;4994056;28;20050;-51
2021/10/22 06:51:39;;;;;;;1.63;0.65;;;;;;;6.09;71.20;100221.25;4987779;28;20042;-48
2021/10/22 06:54:07;;;;;;;5.25;0.75;;;;;;;6.08;70.83;100222.94;4990134;28;20049;-50
2021/10/22 06:56:35;;;;;;;2.15;0.43;;;;;;;6.08;70.77;100222.94;4988148;28;21039;-51
2021/10/22 06:59:02;;;;;;;3.95;0.77;;;;;;;6.11;70.32;100233.28;4995772;28;20525;-52
2021/10/22 07:01:29;;;;;;;5.40;0.88;;;;;;;6.10;71.02;100226.41;4985562;28;20673;-50
2021/10/22 07:03:56;;;;;;;2.85;0.60;;;;;;;6.10;70.56;100225.53;4994439;28;20081;-47
2021/10/22 07:09:09;;;;;;;2.42;0.75;;;;;;;6.10;71.47;100235.81;4984786;28;21684;-48
2021/10/22 07:11:37;;;;;;;5.30;0.90;;;;;;;6.10;71.38;100235.81;4987700;28;20046;-51
2021/10/22 07:14:07;;;;;;;2.83;1.02;;;;;;;6.13;70.76;100234.19;4983964;28;20043;-48
2021/10/22 07:16:37;;;;;;;1.80;0.43;;;;;;;6.17;71.04;100237.69;4993611;28;20084;-48
2021/10/22 07:19:04;;;;;;;2.80;0.82;;;;;;;6.22;71.34;100240.34;4988588;28;21131;-48
2021/10/22 07:21:32;;;;;;;2.72;0.73;;;;;;;6.27;70.67;100256.72;4991236;28;20054;-50
2021/10/22 07:24:01;;;;;;;3.00;0.75;;;;;;;6.33;71.41;100248.25;4991860;28;20050;-50
2021/10/22 07:26:28;;;;;;;3.42;0.73;;;;;;;6.37;71.42;100250.91;4986160;28;20664;-47
2021/10/22 07:28:54;;;;;;;2.75;0.82;;;;;;;6.45;69.93;100252.75;4993424;28;20057;-50
2021/10/22 07:31:21;;;;;;;3.38;0.95;;;;;;;6.55;70.08;100270.06;4981137;28;20054;-49
2021/10/22 07:33:48;;;;;;;1.83;0.38;;;;;;;6.62;70.04;100265.91;4987029;28;20108;-50
2021/10/22 07:36:15;;;;;;;1.77;1.02;;;;;;;6.71;70.54;100260.91;4987580;28;20050;-48
2021/10/22 07:38:43;;;;;;;4.78;0.47;;;;;;;6.78;69.41;100267.03;4987387;28;20050;-48
2021/10/22 07:41:12;;;;;;;5.95;1.02;;;;;;;6.79;70.67;100267.06;4985074;28;20152;-48
2021/10/22 07:43:39;;;;;;;5.07;0.50;;;;;;;6.84;70.55;100271.41;4984856;28;20568;-48
2021/10/22 07:46:06;;;;;;;3.42;1.17;;;;;;;6.84;69.91;100267.13;4989784;28;20068;-49
2021/10/22 07:48:34;;;;;;;2.35;0.80;;;;;;;7.11;69.81;100264.94;4984404;28;20054;-48
2021/10/22 07:51:00;;;;;;;4.68;1.23;;;;;;;7.69;70.14;100258.88;4986222;28;20108;-50
2021/10/22 07:53:27;;;;;;;1.58;0.55;;;;;;;8.12;67.89;100263.69;4982512;28;20055;-50
2021/10/22 07:55:55;;;;;;;1.63;0.63;;;;;;;8.47;67.58;100270.91;4987625;28;20077;-49
2021/10/22 07:58:21;;;;;;;2.55;0.55;;;;;;;8.89;67.01;100283.34;4990885;28;20053;-49
2021/10/22 08:00:48;;;;;;;2.60;0.70;;;;;;;9.19;66.15;100297.34;4988857;28;20054;-50
2021/10/22 08:03:15;;;;;;;2.80;0.45;;;;;;;9.26;66.00;100293.94;4987957;28;20062;-49
2021/10/22 08:05:42;;;;;;;2.55;0.43;;;;;;;9.37;65.82;100300.91;4988906;28;20046;-52
2021/10/22 08:08:10;;;;;;;3.85;0.70;;;;;;;9.65;66.22;100306.22;4987424;28;20046;-51
2021/10/22 08:10:40;;;;;;;0.75;0.52;;;;;;;9.93;65.43;100303.78;4984789;28;20128;-50
2021/10/22 08:13:10;;;;;;;1.70;0.70;;;;;;;10.24;65.25;100305.63;4983366;28;20096;-50
2021/10/22 08:15:44;;;;;;;4.50;1.15;;;;;;;10.70;64.32;100315.22;4988048;28;20077;-52
2021/10/22 08:18:11;;;;;;;6.85;0.73;;;;;;;11.21;63.38;100311.75;4984331;28;20050;-50
2021/10/22 08:20:47;;;;;;;2.90;0.52;;;;;;;11.68;63.32;100322.03;4986043;28;20046;-50
2021/10/22 08:23:17;;;;;;;3.17;0.80;;;;;;;11.96;61.24;100314.19;4996037;28;20068;-54
2021/10/22 08:25:45;;;;;;;3.20;0.80;;;;;;;12.17;60.25;100314.97;4987892;28;20073;-51
2021/10/22 08:28:11;;;;;;;2.05;0.70;;;;;;;12.33;60.67;100321.78;4997456;28;20101;-51
2021/10/22 08:30:38;;;;;;;5.30;0.75;;;;;;;12.44;60.57;100326.06;4983317;28;20054;-51
2021/10/22 08:33:06;;;;;;;2.30;0.90;;;;;;;12.48;59.06;100335.56;4988109;28;20050;-52
2021/10/22 08:35:32;;;;;;;3.25;0.88;;;;;;;12.45;59.23;100325.19;4983615;28;20434;-53
2021/10/22 08:38:00;;;;;;;2.42;0.57;;;;;;;12.43;58.30;100326.97;4986789;28;20047;-52
2021/10/22 08:40:27;;;;;;;2.78;0.50;;;;;;;12.44;58.80;100333.88;4986569;28;20314;-50
2021/10/22 08:42:54;;;;;;;4.80;0.88;;;;;;;12.45;58.34;100340.78;4984900;28;20471;-52
2021/10/22 08:45:22;;;;;;;3.65;0.70;;;;;;;12.62;58.85;100350.19;4984499;28;20101;-52
2021/10/22 08:47:49;;;;;;;3.58;1.05;;;;;;;12.78;58.39;100350.97;4982938;28;20450;-50
2021/10/22 08:50:19;;;;;;;6.38;1.00;;;;;;;12.96;57.28;100362.97;4987453;28;20050;-51
2021/10/22 08:52:47;;;;;;;2.42;0.70;;;;;;;13.14;57.03;100376.72;4983905;28;20054;-50
2021/10/22 08:55:16;;;;;;;3.30;1.20;;;;;;;13.46;57.07;100379.03;4985703;28;20105;-50
2021/10/22 08:57:45;;;;;;;3.45;1.42;;;;;;;14.11;57.08;100387.91;4988030;28;20101;-51
2021/10/22 09:00:15;;;;;;;3.50;1.08;;;;;;;14.96;56.14;100386.81;4978312;28;20507;-52
2021/10/22 09:02:44;;;;;;;3.28;1.15;;;;;;;15.75;55.02;100392.44;4981533;28;20101;-51
2021/10/22 09:05:16;;;;;;;5.88;1.30;;;;;;;16.70;53.58;100388.78;4981888;28;20068;-53
2021/10/22 09:07:48;;;;;;;2.85;0.95;;;;;;;17.63;51.40;100395.25;4983608;28;20050;-54
2021/10/22 09:10:21;;;;;;;2.90;0.90;;;;;;;18.55;50.39;100390.09;4978871;28;20089;-54
2021/10/22 09:12:53;;;;;;;3.05;0.82;;;;;;;19.34;47.37;100401.63;4979950;28;20050;-53
2021/10/22 09:15:24;;;;;;;3.40;1.00;;;;;;;19.96;45.88;100409.97;4978608;28;20058;-52
2021/10/22 09:17:52;;;;;;;5.72;0.80;;;;;;;20.49;45.44;100410.69;4981755;28;20053;-52
2021/10/22 09:20:21;;;;;;;6.78;0.70;;;;;;;21.02;43.92;100413.94;4980615;28;20093;-52
2021/10/22 09:22:58;;;;;;;4.88;0.68;;;;;;;21.40;42.82;100412.38;4980491;28;20050;-52
2021/10/22 09:25:29;;;;;;;3.20;0.50;;;;;;;21.53;42.75;100418.84;4981649;28;20496;-52
2021/10/22 09:27:58;;;;;;;4.20;0.85;;;;;;;21.17;41.95;100422.09;4990317;28;20062;-50
2021/10/22 09:30:31;;;;;;;2.63;1.10;;;;;;;20.36;41.67;100420.00;4979716;28;20101;-52
2021/10/22 09:33:02;;;;;;;2.33;0.75;;;;;;;19.41;42.86;100418.91;4982019;28;20054;-51
2021/10/22 09:35:47;;;;;;;3.15;0.77;;;;;;;18.54;44.57;100413.75;4984133;28;20050;-49
2021/10/22 09:38:21;;;;;;;5.13;0.93;;;;;;;18.45;45.53;100421.00;4988126;28;20099;-52
2021/10/22 09:40:53;;;;;;;3.53;0.50;;;;;;;18.57;45.20;100421.50;4992034;28;20069;-52
2021/10/22 09:43:24;;;;;;;2.20;0.80;;;;;;;18.22;45.32;100425.16;4984030;28;20542;-52
2021/10/22 09:46:08;;;;;;;3.08;0.85;;;;;;;17.54;44.93;100421.69;4985475;28;20054;-55
2021/10/22 09:48:35;;;;;;;3.65;0.77;;;;;;;16.98;47.74;100423.88;4984780;28;20058;-54
2021/10/22 09:51:26;;;;;;;1.27;0.45;;;;;;;16.38;47.53;100429.53;4987669;28;20062;-55
2021/10/22 09:53:55;;;;;;;2.90;0.90;;;;;;;16.00;49.65;100436.41;4991068;28;20050;-54
2021/10/22 09:56:25;;;;;;;4.07;0.50;;;;;;;15.57;49.93;100428.44;4991272;28;20107;-53
2021/10/22 09:58:53;;;;;;;;;;;;;;;15.04;50.16;100426.69;4991362;28;20054;-54
2021/10/22 10:01:20;;;;;;;1.88;0.50;;;;;;;14.80;51.28;100430.50;4986235;28;19922;-54
2021/10/22 10:03:47;;;;;;;2.92;0.88;;;;;;;14.59;51.82;100435.97;4986779;28;20190;-51
2021/10/22 10:06:13;;;;;;;4.07;1.38;;;;;;;14.58;52.27;100444.66;4994061;28;20054;-51
2021/10/22 10:08:40;;;;;;;1.17;0.60;;;;;;;14.39;52.90;100439.69;4991244;28;20057;-54
2021/10/22 10:11:08;;;;;;;2.15;0.68;;;;;;;14.12;53.62;100438.28;4992219;28;20097;-51
2021/10/22 10:13:35;;;;;;;1.40;0.50;;;;;;;13.93;53.66;100448.03;4988107;28;20050;-55
2021/10/22 10:16:06;;;;;;;4.68;0.90;;;;;;;13.71;53.80;100436.06;4991730;28;20402;-51
2021/10/22 10:18:39;;;;;;;2.13;0.90;;;;;;;13.49;54.99;100441.50;4988956;28;20065;-51
2021/10/22 10:21:12;;;;;;;1.55;0.68;;;;;;;13.34;54.48;100446.78;4989682;28;20270;-54
2021/10/22 10:23:42;;;;;;;2.17;0.88;;;;;;;13.36;55.34;100440.69;4991063;28;20486;-52
2021/10/22 10:26:29;;;;;;;2.80;0.68;;;;;;;13.64;56.43;100449.19;4986962;28;20589;-54
2021/10/22 10:28:59;;;;;;;2.58;0.68;;;;;;;13.86;54.88;100452.44;4993175;28;20054;-52
2021/10/22 10:31:30;;;;;;;2.45;0.88;;;;;;;13.82;55.91;100456.78;4987225;28;20632;-53
2021/10/22 10:33:59;;;;;;;2.25;0.73;;;;;;;13.77;56.02;100460.34;4991635;28;20041;-50
2021/10/22 10:36:47;;;;;;;3.47;0.70;;;;;;;13.59;55.83;100463.09;4988152;28;20104;-52
2021/10/22 10:39:34;;;;;;;2.25;0.60;;;;;;;13.50;55.99;100470.97;4981106;28;20108;-51
2021/10/22 10:42:26;;;;;;;3.00;1.25;;;;;;;13.30;57.21;100471.94;4992567;28;20050;-54
2021/10/22 10:44:55;;;;;;;2.55;0.52;;;;;;;13.14;57.38;100471.19;4984454;28;20092;-53
2021/10/22 10:47:38;;;;;;;4.97;1.73;;;;;;;12.97;58.59;100490.34;4983399;28;20058;-51
2021/10/22 10:50:06;;;;;;;1.60;0.77;;;;;;;12.87;58.20;100493.03;4983340;28;20116;-52
2021/10/22 10:52:48;;;;;;;1.20;0.70;;;;;;;12.75;58.51;100488.75;4985773;28;20101;-53
2021/10/22 10:55:40;;;;;;;3.97;0.75;;;;;;;12.62;58.62;100500.91;4989047;28;20077;-53
2021/10/22 10:58:26;;;;;;;1.20;0.47;;;;;;;12.49;58.88;100493.19;4984433;28;20096;-51
2021/10/22 11:00:58;;;;;;;1.25;0.60;;;;;;;12.38;57.93;100497.53;4985175;28;20085;-53
2021/10/22 11:03:46;;;;;;;0.85;0.55;;;;;;;12.28;57.51;100497.56;4983246;28;20042;-53
2021/10/22 11:06:39;;;;;;;0.75;0.65;;;;;;;12.23;58.89;100501.06;4987274;28;20050;-50
2021/10/22 11:09:05;;;;;;;2.28;0.95;;;;;;;12.18;57.97;100495.84;4998483;28;20049;-50
2021/10/22 11:11:36;;;;;;;2.25;0.63;;;;;;;12.16;57.82;100510.59;4991141;28;20046;-51
2021/10/22 11:14:12;;;;;;;1.90;0.63;;;;;;;12.09;58.34;100517.50;4986162;28;20042;-50
2021/10/22 11:16:49;;;;;;;0.95;0.60;;;;;;;12.08;58.83;100518.38;4998080;28;20073;-50
2021/10/22 11:19:23;;;;;;;1.50;0.40;;;;;;;12.01;59.45;100527.88;4991038;28;20046;-52
2021/10/22 11:21:54;;;;;;;1.95;0.60;;;;;;;11.92;58.68;100527.91;4995412;28;20054;-50
2021/10/22 11:24:28;;;;;;;2.92;0.50;;;;;;;11.86;60.07;100525.31;4985491;28;20101;-50
2021/10/22 11:27:02;;;;;;;1.55;0.55;;;;;;;11.78;59.46;100528.75;4991927;28;20058;-53
2021/10/22 11:29:31;;;;;;;1.02;0.45;;;;;;;11.82;60.46;100520.09;4992031;28;20049;-49
2021/10/22 11:32:01;;;;;;;0.93;0.40;;;;;;;11.91;60.69;100534.81;4994833;28;20042;-53
2021/10/22 11:34:31;;;;;;;1.65;0.30;;;;;;;11.94;60.57;100526.16;4989454;28;20092;-53
2021/10/22 11:37:05;;;;;;;2.42;0.55;;;;;;;12.00;60.24;100538.25;4992749;28;20058;-51
2021/10/22 11:39:38;;;;;;;1.27;0.68;;;;;;;12.00;59.03;100531.34;4989568;28;20109;-50
2021/10/22 11:42:17;;;;;;;1.08;0.32;;;;;;;12.03;60.09;100541.72;4991620;28;20049;-51